Time;durP1;ratioP1;P1;durP2;ratioP2;P2;SDS_P1;SDS_P2;PMS_P1;PMS_P2;Temp;Humidity;BMP_temperature;BMP_pressure;BME280_temperature;BME280_humidity;BME280_pressure;Samples;Min_cycle;Max_cycle;Signal;HPM_P1;HPM_P2
2023/03/03 00:00:33;;;;;;;4.90;3.77;;;16.60;53.90;;;;;;5077368;28;20558;-47
2023/03/03 00:03:11;;;;;;;5.70;4.17;;;16.70;54.00;;;;;;5071323;28;20200;-47
2023/03/03 00:05:41;;;;;;;5.60;4.30;;;16.70;54.00;;;;;;5064099;28;20211;-47
2023/03/03 00:08:15;;;;;;;4.63;3.80;;;16.60;54.00;;;;;;5084312;28;20219;-47
2023/03/03 00:10:48;;;;;;;4.30;3.70;;;16.60;54.60;;;;;;5079798;28;20796;-47
2023/03/03 00:13:23;;;;;;;4.60;4.00;;;16.60;54.00;;;;;;5074947;28;20217;-47
2023/03/03 00:15:51;;;;;;;4.40;3.50;;;16.60;54.10;;;;;;5072840;28;20180;-47
2023/03/03 00:18:36;;;;;;;4.13;3.67;;;16.60;54.10;;;;;;5069435;28;20545;-47
2023/03/03 00:21:24;;;;;;;6.23;4.20;;;16.60;54.00;;;;;;5073412;28;20207;-48
2023/03/03 00:24:46;;;;;;;4.87;4.23;;;16.60;54.10;;;;;;5058762;28;20216;-47
2023/03/03 00:27:33;;;;;;;4.63;3.70;;;16.60;54.10;;;;;;5077838;28;20637;-47
2023/03/03 00:30:36;;;;;;;5.43;4.17;;;16.50;54.20;;;;;;5072278;28;20205;-47
2023/03/03 00:33:31;;;;;;;5.20;4.13;;;16.50;54.10;;;;;;5081657;28;20235;-47
2023/03/03 00:36:33;;;;;;;4.30;3.73;;;16.50;54.20;;;;;;5073116;28;20237;-47
2023/03/03 00:39:22;;;;;;;5.23;4.00;;;16.50;54.20;;;;;;5065537;28;20248;-47
2023/03/03 00:41:53;;;;;;;5.20;3.90;;;16.50;54.30;;;;;;5093956;28;20551;-47
2023/03/03 00:44:45;;;;;;;5.20;4.17;;;16.40;54.30;;;;;;5071969;28;20196;-47
2023/03/03 00:47:43;;;;;;;5.27;4.30;;;16.50;54.30;;;;;;5068598;28;20693;-47
2023/03/03 00:50:32;;;;;;;5.43;3.90;;;16.40;54.30;;;;;;5080880;28;20273;-47
2023/03/03 00:53:29;;;;;;;5.40;4.50;;;16.40;54.30;;;;;;5064380;28;20213;-47
2023/03/03 00:55:59;;;;;;;6.27;4.00;;;16.40;54.30;;;;;;5088267;28;20200;-47
2023/03/03 00:58:29;;;;;;;4.33;3.80;;;16.40;54.30;;;;;;5081461;28;20181;-47
2023/03/03 01:01:00;;;;;;;5.17;4.20;;;16.40;54.40;;;;;;5086583;28;20201;-47
2023/03/03 01:03:31;;;;;;;4.90;4.17;;;16.40;54.40;;;;;;5069807;28;20217;-47
2023/03/03 01:06:02;;;;;;;5.97;4.53;;;16.40;54.40;;;;;;5088830;28;20213;-48
2023/03/03 01:08:32;;;;;;;5.20;4.57;;;16.40;54.40;;;;;;5061348;28;20515;-47
2023/03/03 01:11:21;;;;;;;5.43;4.37;;;16.30;55.00;;;;;;5049370;28;20205;-47
2023/03/03 01:13:52;;;;;;;5.00;4.50;;;16.30;55.00;;;;;;5082771;28;20220;-47
2023/03/03 01:16:27;;;;;;;7.47;4.67;;;16.40;54.40;;;;;;5069920;28;20235;-47
2023/03/03 01:19:03;;;;;;;5.97;4.33;;;16.30;54.40;;;;;;5084591;28;20217;-47
2023/03/03 01:21:34;;;;;;;4.57;4.17;;;16.30;54.40;;;;;;5061705;28;20745;-47
2023/03/03 01:24:06;;;;;;;5.57;4.33;;;16.30;54.40;;;;;;5078720;28;20213;-47
2023/03/03 01:26:37;;;;;;;5.63;5.00;;;16.30;54.40;;;;;;5081891;28;20229;-47
2023/03/03 01:29:08;;;;;;;6.73;4.53;;;16.30;54.40;;;;;;5088640;28;20224;-47
2023/03/03 01:31:37;;;;;;;5.13;3.97;;;16.30;54.40;;;;;;5067433;28;20205;-47
2023/03/03 01:34:09;;;;;;;6.30;4.57;;;16.30;54.50;;;;;;5092219;28;20225;-47
2023/03/03 01:36:37;;;;;;;5.27;4.37;;;16.30;54.50;;;;;;5082459;28;20197;-48
2023/03/03 01:39:10;;;;;;;5.07;4.57;;;16.30;54.50;;;;;;5087157;28;20236;-47
2023/03/03 01:41:38;;;;;;;5.47;4.00;;;16.30;54.50;;;;;;5070906;28;20628;-47
2023/03/03 01:44:14;;;;;;;6.73;4.93;;;16.30;54.50;;;;;;5081072;28;20290;-48
2023/03/03 01:46:50;;;;;;;5.13;4.13;;;16.30;54.50;;;;;;5063835;28;20701;-47
2023/03/03 01:49:41;;;;;;;5.37;4.67;;;16.30;54.50;;;;;;5088581;28;20583;-47
2023/03/03 01:52:37;;;;;;;6.07;4.97;;;16.30;54.50;;;;;;5087974;28;20247;-47
2023/03/03 01:55:29;;;;;;;5.40;4.63;;;16.30;54.60;;;;;;5083735;28;20259;-47
2023/03/03 01:58:27;;;;;;;5.90;4.77;;;16.30;54.60;;;;;;5049500;28;20194;-46
2023/03/03 02:01:10;;;;;;;6.03;4.67;;;16.20;54.50;;;;;;5054610;28;20206;-47
2023/03/03 02:03:42;;;;;;;5.63;4.70;;;16.20;54.60;;;;;;5080184;28;20204;-47
2023/03/03 02:06:18;;;;;;;4.93;4.23;;;16.20;54.60;;;;;;5055705;28;20262;-46
2023/03/03 02:08:59;;;;;;;7.07;4.50;;;16.20;54.60;;;;;;5078146;28;20274;-47
2023/03/03 02:11:28;;;;;;;5.63;4.50;;;16.20;54.60;;;;;;5068078;28;20508;-47
2023/03/03 02:14:01;;;;;;;5.07;4.33;;;16.20;54.60;;;;;;5073620;28;20282;-47
2023/03/03 02:16:30;;;;;;;5.40;4.70;;;16.20;54.60;;;;;;5077182;28;20193;-47
2023/03/03 02:19:21;;;;;;;6.00;4.87;;;16.20;54.80;;;;;;5057389;28;20197;-47
2023/03/03 02:21:52;;;;;;;5.43;4.57;;;16.20;54.60;;;;;;5091661;28;20238;-47
2023/03/03 02:24:41;;;;;;;5.57;4.67;;;16.20;54.70;;;;;;5075781;28;20205;-47
2023/03/03 02:27:14;;;;;;;5.47;4.50;;;16.20;54.70;;;;;;5082729;28;20201;-47
2023/03/03 02:29:45;;;;;;;5.80;4.77;;;16.20;54.70;;;;;;5092444;28;20192;-47
2023/03/03 02:32:14;;;;;;;5.73;4.50;;;16.20;54.70;;;;;;5070799;28;20208;-47
2023/03/03 02:34:51;;;;;;;5.47;4.53;;;16.20;54.70;;;;;;5075064;28;20506;-47
2023/03/03 02:37:20;;;;;;;5.97;5.00;;;16.20;54.80;;;;;;5084813;28;20201;-47
2023/03/03 02:39:52;;;;;;;5.10;4.60;;;16.10;54.70;;;;;;5078213;28;20232;-48
2023/03/03 02:42:29;;;;;;;5.73;4.60;;;16.20;54.80;;;;;;5075435;28;20197;-48
2023/03/03 02:45:03;;;;;;;5.77;4.87;;;16.10;54.90;;;;;;5083785;28;20434;-47
2023/03/03 02:47:38;;;;;;;5.43;4.67;;;16.10;54.80;;;;;;5077746;28;20231;-47
2023/03/03 02:50:09;;;;;;;4.33;3.93;;;16.10;54.80;;;;;;5082265;28;20198;-47
2023/03/03 02:52:41;;;;;;;7.47;4.30;;;16.10;54.80;;;;;;5067951;28;20548;-47
2023/03/03 02:55:10;;;;;;;5.27;4.60;;;16.10;54.80;;;;;;5090612;28;20208;-47
2023/03/03 02:57:40;;;;;;;6.43;5.60;;;16.10;54.80;;;;;;5082245;28;20186;-47
2023/03/03 03:00:10;;;;;;;5.73;4.63;;;16.10;54.90;;;;;;5060980;28;20234;-47
2023/03/03 03:02:42;;;;;;;5.83;4.43;;;16.10;54.90;;;;;;5083149;28;20197;-47
2023/03/03 03:05:13;;;;;;;4.93;4.30;;;16.10;54.90;;;;;;5079480;28;20445;-47
2023/03/03 03:07:44;;;;;;;5.93;4.83;;;16.10;54.90;;;;;;5087621;28;20204;-47
2023/03/03 03:10:16;;;;;;;4.50;4.00;;;16.10;54.90;;;;;;5077866;28;20192;-47
2023/03/03 03:12:45;;;;;;;5.47;4.80;;;16.10;54.90;;;;;;5064065;28;20225;-47
2023/03/03 03:15:15;;;;;;;5.97;5.00;;;16.00;54.90;;;;;;5080639;28;20221;-47
2023/03/03 03:17:46;;;;;;;4.20;3.63;;;16.00;54.90;;;;;;5079157;28;20193;-47
2023/03/03 03:20:17;;;;;;;5.30;4.43;;;16.00;55.00;;;;;;5063626;28;20533;-47
2023/03/03 03:22:51;;;;;;;5.30;4.80;;;16.00;55.00;;;;;;5085053;28;20193;-47
2023/03/03 03:25:26;;;;;;;5.53;4.70;;;16.00;55.00;;;;;;5090455;28;20208;-47
2023/03/03 03:27:54;;;;;;;4.87;4.37;;;16.00;55.00;;;;;;5083870;28;20208;-47
2023/03/03 03:30:25;;;;;;;7.30;4.47;;;16.10;55.10;;;;;;5059882;28;20618;-47
2023/03/03 03:32:54;;;;;;;4.90;4.20;;;16.10;55.10;;;;;;5078372;28;20236;-47
2023/03/03 03:35:33;;;;;;;6.00;5.00;;;16.10;55.10;;;;;;5086997;28;20223;-47
2023/03/03 03:38:03;;;;;;;4.97;4.40;;;16.00;55.00;;;;;;5070746;28;20194;-47
2023/03/03 03:40:34;;;;;;;5.10;4.37;;;16.00;55.00;;;;;;5080669;28;20282;-47
2023/03/03 03:43:06;;;;;;;4.43;3.87;;;16.00;55.10;;;;;;5072633;28;20600;-47
2023/03/03 03:45:48;;;;;;;5.30;4.27;;;16.00;55.10;;;;;;5090817;28;20225;-47
2023/03/03 03:48:19;;;;;;;4.67;3.77;;;16.00;55.10;;;;;;5088973;28;20282;-46
2023/03/03 03:50:51;;;;;;;4.70;4.00;;;16.00;55.10;;;;;;5081137;28;20185;-47
2023/03/03 03:53:20;;;;;;;5.13;4.63;;;16.00;55.10;;;;;;5074015;28;20244;-47
2023/03/03 03:56:05;;;;;;;5.60;4.40;;;16.00;55.10;;;;;;5083040;28;20193;-47
2023/03/03 03:58:42;;;;;;;5.40;4.90;;;16.00;55.10;;;;;;5068300;28;20213;-47
2023/03/03 04:01:14;;;;;;;4.80;3.87;;;16.00;55.10;;;;;;5084879;28;20200;-47
2023/03/03 04:03:45;;;;;;;4.73;4.30;;;16.00;55.10;;;;;;5065830;28;20202;-47
2023/03/03 04:06:16;;;;;;;5.57;4.77;;;16.00;55.20;;;;;;5068004;28;20189;-47
2023/03/03 04:08:46;;;;;;;5.37;4.87;;;15.90;55.10;;;;;;5084956;28;20207;-47
2023/03/03 04:11:15;;;;;;;5.30;4.60;;;15.90;55.10;;;;;;5071309;28;20658;-48
2023/03/03 04:13:46;;;;;;;6.43;4.63;;;15.90;55.10;;;;;;5071633;28;20213;-47
2023/03/03 04:16:17;;;;;;;4.97;3.93;;;15.90;55.10;;;;;;5089447;28;20258;-47
2023/03/03 04:18:49;;;;;;;5.87;4.60;;;15.90;55.10;;;;;;5086910;28;20196;-47
2023/03/03 04:21:20;;;;;;;4.83;4.30;;;15.90;55.10;;;;;;5079899;28;20517;-47
2023/03/03 04:23:52;;;;;;;4.93;4.20;;;15.90;55.10;;;;;;5086883;28;20205;-48
2023/03/03 04:26:22;;;;;;;5.03;4.47;;;15.90;55.10;;;;;;5089289;28;20572;-47
2023/03/03 04:28:52;;;;;;;4.37;3.93;;;15.90;55.10;;;;;;5082923;28;20189;-47
2023/03/03 04:31:24;;;;;;;4.40;4.00;;;15.90;55.80;;;;;;5078604;28;20189;-47
2023/03/03 04:33:57;;;;;;;4.60;4.10;;;15.90;55.20;;;;;;5062449;28;20241;-47
2023/03/03 04:36:27;;;;;;;4.77;4.27;;;15.90;55.20;;;;;;5082308;28;20201;-47
2023/03/03 04:39:00;;;;;;;6.37;4.77;;;15.90;55.20;;;;;;5082602;28;20206;-47
2023/03/03 04:41:30;;;;;;;6.10;4.20;;;15.90;55.20;;;;;;5075420;28;20200;-47
2023/03/03 04:43:57;;;;;;;4.50;3.97;;;15.90;55.20;;;;;;5070655;28;20212;-47
2023/03/03 04:46:27;;;;;;;4.60;4.00;;;15.90;55.10;;;;;;5088718;28;20669;-47
2023/03/03 04:49:10;;;;;;;5.00;4.07;;;15.90;55.20;;;;;;5080843;28;20603;-47
2023/03/03 04:51:41;;;;;;;5.43;4.30;;;15.80;55.10;;;;;;5088822;28;20215;-47
2023/03/03 04:54:11;;;;;;;4.93;4.10;;;15.80;55.20;;;;;;5088665;28;20198;-47
2023/03/03 04:56:39;;;;;;;4.40;3.70;;;15.80;55.20;;;;;;5068436;28;20184;-47
2023/03/03 04:59:15;;;;;;;4.33;3.83;;;15.90;55.20;;;;;;5074829;28;20213;-47
2023/03/03 05:01:46;;;;;;;4.97;4.00;;;15.80;55.30;;;;;;5070552;28;20189;-47
2023/03/03 05:04:16;;;;;;;4.33;3.60;;;15.80;55.20;;;;;;5071368;28;20246;-47
2023/03/03 05:06:53;;;;;;;5.70;4.73;;;15.80;55.20;;;;;;5084535;28;20201;-47
2023/03/03 05:09:24;;;;;;;4.43;3.77;;;15.80;55.30;;;;;;5088319;28;20201;-47
2023/03/03 05:11:54;;;;;;;4.70;4.20;;;15.80;55.20;;;;;;5089842;28;20209;-47
2023/03/03 05:14:25;;;;;;;5.40;3.37;;;15.80;55.20;;;;;;5093527;28;20244;-48
2023/03/03 05:16:57;;;;;;;4.90;4.40;;;15.80;55.30;;;;;;5077991;28;20196;-51
2023/03/03 05:19:28;;;;;;;4.40;3.93;;;15.80;55.70;;;;;;5070555;28;20590;-47
2023/03/03 05:21:59;;;;;;;3.90;3.50;;;15.80;55.30;;;;;;5088858;28;20588;-47
2023/03/03 05:24:30;;;;;;;4.90;4.40;;;15.80;55.20;;;;;;5081629;28;20205;-47
2023/03/03 05:26:59;;;;;;;4.53;4.13;;;15.80;55.30;;;;;;5087738;28;20197;-47
2023/03/03 05:29:32;;;;;;;4.40;4.00;;;15.80;55.30;;;;;;5067378;28;20213;-48
2023/03/03 05:32:02;;;;;;;4.10;3.60;;;15.80;55.30;;;;;;5071293;28;20205;-47
2023/03/03 05:34:32;;;;;;;6.07;4.23;;;15.80;55.30;;;;;;5065781;28;20300;-47
2023/03/03 05:37:02;;;;;;;4.93;3.93;;;15.80;55.30;;;;;;5053905;28;20205;-47
2023/03/03 05:39:33;;;;;;;4.30;3.40;;;15.80;55.30;;;;;;5072921;28;20232;-47
2023/03/03 05:42:12;;;;;;;5.00;4.50;;;15.80;55.30;;;;;;5059526;28;20627;-47
2023/03/03 05:44:43;;;;;;;4.27;3.53;;;15.80;55.40;;;;;;5065064;28;20197;-47
2023/03/03 05:47:14;;;;;;;5.10;4.50;;;15.80;55.30;;;;;;5079256;28;20236;-47
2023/03/03 05:49:44;;;;;;;4.50;4.10;;;15.80;55.30;;;;;;5069377;28;20294;-47
2023/03/03 05:52:13;;;;;;;4.10;3.70;;;15.70;55.30;;;;;;5083481;28;20641;-48
2023/03/03 05:54:43;;;;;;;4.33;3.70;;;15.80;55.30;;;;;;5074695;28;20243;-47
2023/03/03 05:57:14;;;;;;;4.33;3.60;;;15.80;55.30;;;;;;5081739;28;20200;-47
2023/03/03 05:59:44;;;;;;;5.30;4.10;;;15.80;55.30;;;;;;5083153;28;20802;-47
2023/03/03 06:02:14;;;;;;;5.07;4.20;;;15.80;55.30;;;;;;5069600;28;20217;-47
2023/03/03 06:04:44;;;;;;;4.97;4.47;;;15.70;55.20;;;;;;5077342;28;20607;-47
2023/03/03 06:07:13;;;;;;;5.47;4.83;;;15.70;55.20;;;;;;5087988;28;20534;-47
2023/03/03 06:09:44;;;;;;;5.50;4.47;;;15.70;55.10;;;;;;5084023;28;20205;-47
2023/03/03 06:12:13;;;;;;;7.17;4.60;;;15.80;55.30;;;;;;5069176;28;20661;-47
2023/03/03 06:14:53;;;;;;;6.27;4.90;;;15.70;55.20;;;;;;5063788;28;20214;-47
2023/03/03 06:17:23;;;;;;;6.07;4.83;;;15.70;55.30;;;;;;5082628;28;20700;-47
2023/03/03 06:19:52;;;;;;;7.03;5.40;;;15.70;55.40;;;;;;5081760;28;20193;-47
2023/03/03 06:22:25;;;;;;;5.53;4.60;;;15.70;55.40;;;;;;5067292;28;20189;-47
2023/03/03 06:24:56;;;;;;;7.97;5.50;;;15.70;55.50;;;;;;5072419;28;20213;-47
2023/03/03 06:27:28;;;;;;;7.20;4.73;;;15.70;55.40;;;;;;5087297;28;20193;-47
2023/03/03 06:29:58;;;;;;;6.27;5.10;;;15.70;55.40;;;;;;5084123;28;20201;-47
2023/03/03 06:32:28;;;;;;;6.37;4.90;;;15.70;55.40;;;;;;5062216;28;20185;-47
2023/03/03 06:34:58;;;;;;;5.53;4.67;;;15.70;55.40;;;;;;5071896;28;20248;-48
2023/03/03 06:37:30;;;;;;;5.60;5.00;;;15.70;55.30;;;;;;5081035;28;20530;-47
2023/03/03 06:40:01;;;;;;;8.70;5.17;;;15.70;55.20;;;;;;5073603;28;20233;-48
2023/03/03 06:42:32;;;;;;;6.20;4.37;;;15.80;55.20;;;;;;5065865;28;20186;-47
2023/03/03 06:45:02;;;;;;;5.53;4.70;;;15.70;55.20;;;;;;5086834;28;20201;-47
2023/03/03 06:47:33;;;;;;;6.40;4.50;;;15.70;55.10;;;;;;5083339;28;20205;-47
2023/03/03 06:50:03;;;;;;;6.23;5.63;;;15.70;55.10;;;;;;5087188;28;20286;-47
2023/03/03 06:52:34;;;;;;;5.50;4.90;;;15.70;55.10;;;;;;5073323;28;20272;-47
2023/03/03 06:55:22;;;;;;;5.70;4.83;;;15.70;55.10;;;;;;5075691;28;20210;-47
2023/03/03 06:58:13;;;;;;;6.47;4.63;;;15.70;55.10;;;;;;5073898;28;20729;-47
2023/03/03 07:00:52;;;;;;;7.30;4.93;;;15.70;55.10;;;;;;5058300;28;20209;-47
2023/03/03 07:03:32;;;;;;;6.30;5.27;;;15.70;55.10;;;;;;5066393;28;20212;-47
2023/03/03 07:06:10;;;;;;;5.40;4.77;;;15.70;55.00;;;;;;5086272;28;20201;-47
2023/03/03 07:08:40;;;;;;;6.20;5.07;;;15.70;55.00;;;;;;5070936;28;20200;-47
2023/03/03 07:11:14;;;;;;;6.00;4.60;;;15.70;54.90;;;;;;5096279;28;20610;-47
2023/03/03 07:13:50;;;;;;;8.60;4.90;;;15.70;54.90;;;;;;5076125;28;20220;-47
2023/03/03 07:16:26;;;;;;;7.30;5.00;;;15.60;54.80;;;;;;5073317;28;20203;-47
2023/03/03 07:19:03;;;;;;;6.30;4.77;;;15.70;54.90;;;;;;5049279;28;20223;-47
2023/03/03 07:21:36;;;;;;;6.73;5.07;;;15.70;55.20;;;;;;5085967;28;20653;-47
2023/03/03 07:24:36;;;;;;;30.93;4.97;;;15.70;55.20;;;;;;5086442;28;20227;-47
2023/03/03 07:27:26;;;;;;;10.20;5.27;;;15.90;57.50;;;;;;5085603;28;20192;-47
2023/03/03 07:30:34;;;;;;;6.33;4.23;;;16.20;57.60;;;;;;5071647;28;20185;-47
2023/03/03 07:33:40;;;;;;;6.67;3.77;;;16.60;57.50;;;;;;5076847;28;20292;-47
2023/03/03 07:36:35;;;;;;;7.23;4.13;;;17.10;56.80;;;;;;5084103;28;20212;-47
2023/03/03 07:39:33;;;;;;;9.43;4.00;;;17.40;56.40;;;;;;5089581;28;20220;-47
2023/03/03 07:42:37;;;;;;;5.23;3.50;;;17.70;55.60;;;;;;5064622;28;20590;-46
2023/03/03 07:45:36;;;;;;;5.77;3.63;;;18.00;54.80;;;;;;5079081;28;20257;-48
2023/03/03 07:48:21;;;;;;;5.73;2.93;;;18.30;54.10;;;;;;5061846;28;20212;-48
2023/03/03 07:51:05;;;;;;;4.93;2.97;;;18.60;53.50;;;;;;5085426;28;20205;-47
2023/03/03 07:53:46;;;;;;;5.93;3.47;;;18.80;53.00;;;;;;5073347;28;20674;-48
2023/03/03 07:56:34;;;;;;;8.97;3.20;;;19.10;52.40;;;;;;5068948;28;20213;-47
2023/03/03 07:59:26;;;;;;;4.63;3.13;;;19.40;51.90;;;;;;5075436;28;20213;-47
2023/03/03 08:02:01;;;;;;;6.90;3.03;;;19.60;51.30;;;;;;5075332;28;20206;-47
2023/03/03 08:04:51;;;;;;;3.47;2.30;;;19.80;50.90;;;;;;5092366;28;20197;-46
2023/03/03 08:07:24;;;;;;;3.63;2.70;;;20.00;50.40;;;;;;5079062;28;20783;-47
2023/03/03 08:10:01;;;;;;;3.23;2.80;;;20.10;50.10;;;;;;5081067;28;20200;-48
2023/03/03 08:12:49;;;;;;;3.77;3.30;;;20.10;49.50;;;;;;5081205;28;20232;-46
2023/03/03 08:15:23;;;;;;;3.30;2.97;;;19.90;49.30;;;;;;5083244;28;20217;-48
2023/03/03 08:17:55;;;;;;;4.90;3.47;;;19.80;50.70;;;;;;5087775;28;20193;-48
2023/03/03 08:20:41;;;;;;;4.20;3.67;;;19.70;49.60;;;;;;5059517;28;20197;-47
2023/03/03 08:23:11;;;;;;;5.23;3.73;;;19.60;49.90;;;;;;5079529;28;20232;-46
2023/03/03 08:25:45;;;;;;;5.30;3.60;;;19.60;49.70;;;;;;5083125;28;20501;-46
2023/03/03 08:28:17;;;;;;;3.60;3.03;;;19.60;50.60;;;;;;5062928;28;20419;-46
2023/03/03 08:30:48;;;;;;;3.00;2.70;;;19.70;50.60;;;;;;5042843;28;21058;-46
2023/03/03 08:33:17;;;;;;;4.77;3.43;;;19.90;50.00;;;;;;5069699;28;20203;-47
2023/03/03 08:35:49;;;;;;;3.70;3.07;;;20.20;49.70;;;;;;5081228;28;20233;-47
2023/03/03 08:38:22;;;;;;;5.07;3.37;;;20.40;49.40;;;;;;5078967;28;20201;-48
2023/03/03 08:40:55;;;;;;;3.40;2.53;;;20.60;49.20;;;;;;5054115;28;20239;-48
2023/03/03 08:43:37;;;;;;;3.10;2.50;;;20.80;49.00;;;;;;5089111;28;20240;-47
2023/03/03 08:46:10;;;;;;;5.30;3.20;;;20.90;48.60;;;;;;5070586;28;20208;-47
2023/03/03 08:48:39;;;;;;;3.53;2.87;;;21.00;48.40;;;;;;5062706;28;20252;-47
2023/03/03 08:51:12;;;;;;;4.23;2.33;;;21.10;48.30;;;;;;5081429;28;20197;-47
2023/03/03 08:53:43;;;;;;;6.03;2.70;;;21.30;48.20;;;;;;5079535;28;20217;-47
2023/03/03 08:56:13;;;;;;;2.77;2.47;;;21.40;47.80;;;;;;5055920;28;20545;-46
2023/03/03 08:58:47;;;;;;;3.83;2.23;;;21.50;47.40;;;;;;5090170;28;20531;-46
2023/03/03 09:01:31;;;;;;;2.73;2.50;;;21.70;47.60;;;;;;5084226;28;20197;-47
2023/03/03 09:04:02;;;;;;;3.90;2.70;;;21.70;47.30;;;;;;5070757;28;20237;-46
2023/03/03 09:06:34;;;;;;;3.27;2.50;;;21.80;47.10;;;;;;5082674;28;20205;-47
2023/03/03 09:09:06;;;;;;;5.07;2.50;;;21.90;46.90;;;;;;5053445;28;20454;-46
2023/03/03 09:11:38;;;;;;;2.63;2.40;;;22.00;46.90;;;;;;5063252;28;20210;-46
2023/03/03 09:14:16;;;;;;;3.63;2.47;;;22.10;46.60;;;;;;5077919;28;20219;-46
2023/03/03 09:16:51;;;;;;;3.00;2.70;;;22.20;46.50;;;;;;5053082;28;20552;-47
2023/03/03 09:19:35;;;;;;;3.93;3.03;;;22.30;46.50;;;;;;5080449;28;20189;-46
2023/03/03 09:22:24;;;;;;;4.00;3.10;;;22.20;45.60;;;;;;5075678;28;20511;-47
2023/03/03 09:24:57;;;;;;;5.40;3.27;;;22.10;45.90;;;;;;5077268;28;20575;-47
2023/03/03 09:27:36;;;;;;;4.37;3.07;;;21.90;45.70;;;;;;5069406;28;20200;-47
2023/03/03 09:30:38;;;;;;;4.27;3.03;;;21.80;46.00;;;;;;5060086;28;20190;-47
2023/03/03 09:33:43;;;;;;;6.30;3.33;;;21.70;46.00;;;;;;5062300;28;20220;-47
2023/03/03 09:36:50;;;;;;;4.50;3.50;;;21.50;46.40;;;;;;5065879;28;20209;-46
2023/03/03 09:39:28;;;;;;;4.00;3.40;;;21.50;46.20;;;;;;5068035;28;20198;-47
2023/03/03 09:42:20;;;;;;;5.13;3.83;;;21.40;46.20;;;;;;5046534;28;20577;-48
2023/03/03 09:45:11;;;;;;;4.87;4.10;;;21.30;46.40;;;;;;5055124;28;20208;-47
2023/03/03 09:47:55;;;;;;;4.00;3.50;;;21.20;46.80;;;;;;5055106;28;20268;-48
2023/03/03 09:50:51;;;;;;;4.60;3.33;;;21.10;47.30;;;;;;5064170;28;20205;-48
2023/03/03 09:54:07;;;;;;;4.60;3.77;;;21.00;47.30;;;;;;5064162;28;20307;-47
2023/03/03 09:57:08;;;;;;;4.27;3.53;;;20.90;47.50;;;;;;5022553;28;20212;-46
2023/03/03 10:00:15;;;;;;;4.57;3.60;;;20.90;47.70;;;;;;5052824;28;20205;-47
2023/03/03 10:03:28;;;;;;;3.93;3.30;;;20.80;48.00;;;;;;5063890;28;20205;-47
2023/03/03 10:06:23;;;;;;;3.67;3.20;;;20.80;47.90;;;;;;5059387;28;20182;-46
2023/03/03 10:09:34;;;;;;;5.13;4.23;;;20.70;47.90;;;;;;5054684;28;20193;-47
2023/03/03 10:12:24;;;;;;;4.90;3.87;;;20.70;48.30;;;;;;5062755;28;20248;-46
2023/03/03 10:15:24;;;;;;;4.57;3.70;;;20.30;44.60;;;;;;5060628;28;20210;-47
2023/03/03 10:18:23;;;;;;;5.33;3.50;;;20.10;46.20;;;;;;5055170;28;20190;-45
2023/03/03 10:21:26;;;;;;;5.07;3.83;;;20.10;47.00;;;;;;5067732;28;20213;-46
2023/03/03 10:24:36;;;;;;;4.13;3.73;;;20.10;47.80;;;;;;5049663;28;20199;-46
2023/03/03 10:27:25;;;;;;;7.43;4.10;;;20.20;48.20;;;;;;5066639;28;20185;-46
2023/03/03 10:30:31;;;;;;;5.63;3.53;;;20.20;48.30;;;;;;5069064;28;20202;-47
2023/03/03 10:33:42;;;;;;;6.33;3.10;;;20.30;49.20;;;;;;5015838;28;20213;-46
2023/03/03 10:36:49;;;;;;;3.13;2.83;;;20.60;49.10;;;;;;5056353;28;20593;-46
2023/03/03 10:39:56;;;;;;;3.63;2.67;;;20.90;48.80;;;;;;5063021;28;20198;-47
2023/03/03 10:42:42;;;;;;;3.67;2.63;;;21.10;48.40;;;;;;5067242;28;20538;-47
2023/03/03 10:45:52;;;;;;;2.37;2.17;;;21.30;48.10;;;;;;5061648;28;20194;-46
2023/03/03 10:49:13;;;;;;;3.27;2.67;;;21.50;47.50;;;;;;5044364;28;20256;-46
2023/03/03 10:52:22;;;;;;;2.70;2.40;;;21.70;46.90;;;;;;5036437;28;20205;-47
2023/03/03 10:55:40;;;;;;;2.47;2.27;;;22.00;46.40;;;;;;5045035;28;20313;-48
2023/03/03 10:58:27;;;;;;;5.17;2.50;;;22.10;46.60;;;;;;5026805;28;20210;-48
2023/03/03 11:01:45;;;;;;;3.90;2.10;;;22.20;46.90;;;;;;5048358;28;20213;-47
2023/03/03 11:04:30;;;;;;;2.50;2.30;;;22.30;46.60;;;;;;4979961;28;20209;-47
2023/03/03 11:07:32;;;;;;;2.70;2.03;;;22.50;46.70;;;;;;5070276;28;20193;-46
2023/03/03 11:10:38;;;;;;;2.33;2.00;;;22.60;45.90;;;;;;5065076;28;20200;-47
2023/03/03 11:13:37;;;;;;;2.83;2.43;;;22.70;46.00;;;;;;5065618;28;20206;-46
2023/03/03 11:16:57;;;;;;;2.53;2.30;;;22.80;45.50;;;;;;5060931;28;20245;-48
2023/03/03 11:20:02;;;;;;;2.60;1.80;;;22.90;46.10;;;;;;4983335;28;20200;-47
2023/03/03 11:23:26;;;;;;;2.87;2.13;;;23.00;45.80;;;;;;4981799;28;20313;-46
2023/03/03 11:26:41;;;;;;;2.20;1.90;;;23.00;45.70;;;;;;4968612;28;20220;-46
2023/03/03 11:29:17;;;;;;;2.37;2.17;;;23.10;45.60;;;;;;4986165;28;20207;-46
2023/03/03 11:32:18;;;;;;;2.13;1.87;;;23.20;45.40;;;;;;5063028;28;20205;-47
2023/03/03 11:35:00;;;;;;;2.30;2.10;;;23.20;45.50;;;;;;5064070;28;20434;-48
2023/03/03 11:37:53;;;;;;;2.13;1.97;;;23.40;45.00;;;;;;5065732;28;20190;-50
2023/03/03 11:40:54;;;;;;;2.20;2.00;;;23.50;44.90;;;;;;5072759;28;20221;-48
2023/03/03 11:44:01;;;;;;;2.93;2.70;;;23.60;44.60;;;;;;5038031;28;20209;-48
2023/03/03 11:46:39;;;;;;;3.33;2.87;;;23.70;44.00;;;;;;5034236;28;20290;-49
2023/03/03 11:49:27;;;;;;;2.87;2.27;;;23.50;43.90;;;;;;5056880;28;20291;-48
2023/03/03 11:52:37;;;;;;;3.27;2.90;;;23.30;43.90;;;;;;5083237;28;20197;-48
2023/03/03 11:55:48;;;;;;;3.17;2.87;;;23.10;44.10;;;;;;5033621;28;20714;-48
2023/03/03 11:58:39;;;;;;;3.67;2.90;;;22.90;44.20;;;;;;5073306;28;20204;-47
2023/03/03 12:01:43;;;;;;;2.67;2.40;;;22.70;44.60;;;;;;5054440;28;20551;-48
2023/03/03 12:04:42;;;;;;;3.40;2.93;;;22.50;44.80;;;;;;5080521;28;20197;-48
2023/03/03 12:07:37;;;;;;;3.07;2.77;;;22.40;44.60;;;;;;5073376;28;20245;-48
2023/03/03 12:10:49;;;;;;;3.80;3.07;;;22.30;45.00;;;;;;5074402;28;20219;-47
2023/03/03 12:14:03;;;;;;;3.20;2.90;;;22.20;45.00;;;;;;5087016;28;20189;-47
2023/03/03 12:17:04;;;;;;;3.07;2.43;;;22.10;45.20;;;;;;5073991;28;20329;-46
2023/03/03 12:19:55;;;;;;;3.20;2.70;;;22.10;46.30;;;;;;5072155;28;20266;-46
2023/03/03 12:23:02;;;;;;;2.40;2.20;;;22.30;46.30;;;;;;5082194;28;20190;-47
2023/03/03 12:25:56;;;;;;;2.93;2.37;;;22.40;46.50;;;;;;5091828;28;20197;-47
2023/03/03 12:28:38;;;;;;;2.47;2.13;;;22.60;46.20;;;;;;5067176;28;20259;-47
2023/03/03 12:31:40;;;;;;;2.27;2.07;;;22.80;45.80;;;;;;5080054;28;20194;-46
2023/03/03 12:34:37;;;;;;;2.87;2.53;;;23.00;45.70;;;;;;5070443;28;20635;-47
2023/03/03 12:37:45;;;;;;;2.50;2.30;;;23.10;45.60;;;;;;5066678;28;20205;-46
2023/03/03 12:40:23;;;;;;;3.70;2.10;;;23.30;45.40;;;;;;5077884;28;20675;-47
2023/03/03 12:43:30;;;;;;;3.63;1.93;;;23.50;45.40;;;;;;5033967;28;20201;-47
2023/03/03 12:46:36;;;;;;;2.47;2.20;;;23.60;45.20;;;;;;5065088;28;20201;-47
2023/03/03 12:49:08;;;;;;;3.30;2.20;;;23.70;44.90;;;;;;5068157;28;20232;-47
2023/03/03 12:52:23;;;;;;;2.40;2.10;;;23.80;44.70;;;;;;5050417;28;20214;-48
2023/03/03 12:55:23;;;;;;;3.10;2.50;;;24.00;44.90;;;;;;5062659;28;20240;-47
2023/03/03 12:58:14;;;;;;;2.53;2.33;;;23.90;44.60;;;;;;4986872;28;20196;-47
2023/03/03 13:01:05;;;;;;;2.60;2.40;;;23.80;44.70;;;;;;4967510;28;20209;-47
2023/03/03 13:04:03;;;;;;;4.30;2.73;;;23.60;44.60;;;;;;4988900;28;20197;-48
2023/03/03 13:07:04;;;;;;;3.87;3.10;;;23.40;44.60;;;;;;4986130;28;20208;-48
2023/03/03 13:10:13;;;;;;;3.30;3.00;;;23.40;44.60;;;;;;4991432;28;20473;-48
2023/03/03 13:13:14;;;;;;;3.20;2.90;;;23.30;44.60;;;;;;4947779;28;20551;-47
2023/03/03 13:16:03;;;;;;;3.47;3.17;;;23.20;45.30;;;;;;4963105;28;20211;-47
2023/03/03 13:18:53;;;;;;;2.97;2.70;;;23.10;45.10;;;;;;4970930;28;20263;-46
2023/03/03 13:22:00;;;;;;;2.83;2.53;;;23.00;45.60;;;;;;5016229;28;20213;-46
2023/03/03 13:25:04;;;;;;;4.77;2.90;;;23.00;45.90;;;;;;5057520;28;20210;-46
2023/03/03 13:27:52;;;;;;;3.30;2.90;;;22.90;45.80;;;;;;5064280;28;20234;-48
2023/03/03 13:30:40;;;;;;;3.20;2.90;;;22.80;46.10;;;;;;5066657;28;20205;-47
2023/03/03 13:33:36;;;;;;;3.17;2.70;;;22.80;46.00;;;;;;5048525;28;20531;-47
2023/03/03 13:36:10;;;;;;;3.30;2.73;;;22.70;46.30;;;;;;5048331;28;20210;-49
2023/03/03 13:38:51;;;;;;;3.53;3.03;;;22.60;46.50;;;;;;5051952;28;20212;-48
2023/03/03 13:41:55;;;;;;;4.33;2.90;;;22.60;46.50;;;;;;5050407;28;20222;-46
2023/03/03 13:44:40;;;;;;;5.33;3.00;;;22.50;46.60;;;;;;5030584;28;20225;-47
2023/03/03 13:47:52;;;;;;;3.07;2.60;;;22.40;46.90;;;;;;5034880;28;20843;-47
2023/03/03 13:50:50;;;;;;;3.17;2.87;;;22.40;47.00;;;;;;5062224;28;20190;-48
2023/03/03 13:53:35;;;;;;;3.10;2.80;;;22.30;47.30;;;;;;5049698;28;20542;-48
2023/03/03 13:56:27;;;;;;;3.33;3.03;;;22.30;47.40;;;;;;5070602;28;20224;-48
2023/03/03 13:59:18;;;;;;;3.20;2.90;;;22.20;47.50;;;;;;5049288;28;20267;-48
2023/03/03 14:02:24;;;;;;;3.40;3.10;;;22.20;47.30;;;;;;5062752;28;20514;-47
2023/03/03 14:05:12;;;;;;;3.43;2.83;;;22.10;47.30;;;;;;4966335;28;20213;-47
2023/03/03 14:08:26;;;;;;;3.53;2.50;;;22.10;47.70;;;;;;4961442;28;20212;-49